Time;durP1;ratioP1;P1;durP2;ratioP2;P2;SDS_P1;SDS_P2;PMS_P1;PMS_P2;Temp;Humidity;BMP_temperature;BMP_pressure;BME280_temperature;BME280_humidity;BME280_pressure;Samples;Min_cycle;Max_cycle;Signal;HPM_P1;HPM_P2
2023/01/08 00:00:17;;;;;;;3.23;1.63;;;;;;;8.61;82.11;100066.38;5982123;29;20151;-76
2023/01/08 00:03:13;;;;;;;2.77;1.60;;;;;;;8.66;82.26;100069.38;5980528;29;20402;-74
2023/01/08 00:06:11;;;;;;;5.22;1.85;;;;;;;8.65;82.21;100046.56;5983115;29;20035;-76
2023/01/08 00:09:06;;;;;;;3.47;1.88;;;;;;;8.59;81.99;100024.22;5984284;29;20114;-77
2023/01/08 00:12:02;;;;;;;4.43;1.53;;;;;;;8.69;81.90;100021.50;5982238;29;20035;-76
2023/01/08 00:14:57;;;;;;;3.17;1.60;;;;;;;8.80;81.27;100016.84;5981721;29;20040;-78
2023/01/08 00:17:52;;;;;;;4.10;1.60;;;;;;;8.77;81.36;100021.59;5980465;29;20282;-76
2023/01/08 00:20:48;;;;;;;3.33;1.30;;;;;;;8.71;81.74;100014.25;5980685;28;20089;-76
2023/01/08 00:23:44;;;;;;;5.28;1.75;;;;;;;8.67;81.75;100019.00;5979302;29;20055;-77
2023/01/08 00:26:39;;;;;;;3.73;1.87;;;;;;;8.74;81.67;100028.00;5989472;28;20035;-78
2023/01/08 00:29:36;;;;;;;4.87;1.73;;;;;;;8.76;81.52;100022.56;5977231;29;20369;-76
2023/01/08 00:32:31;;;;;;;4.85;2.30;;;;;;;8.79;82.01;100036.31;5979135;29;20035;-77
2023/01/08 00:35:26;;;;;;;3.03;1.50;;;;;;;8.76;82.03;100026.03;5980151;29;20066;-74
2023/01/08 00:38:26;;;;;;;2.93;1.50;;;;;;;8.77;82.01;100018.94;5979584;29;20031;-75
2023/01/08 00:41:21;;;;;;;3.28;1.90;;;;;;;8.81;81.73;100017.66;5979979;29;20031;-77
2023/01/08 00:44:16;;;;;;;3.40;1.90;;;;;;;8.75;82.25;99991.84;5979673;28;20497;-77
2023/01/08 00:47:12;;;;;;;3.40;1.67;;;;;;;8.73;82.20;99988.50;5980567;29;20042;-74
2023/01/08 00:50:07;;;;;;;3.83;1.77;;;;;;;8.67;82.45;100003.16;5980166;29;20039;-75
2023/01/08 00:53:03;;;;;;;3.47;1.70;;;;;;;8.69;82.85;100013.59;5978907;29;20129;-77
2023/01/08 00:56:03;;;;;;;5.47;2.00;;;;;;;8.61;83.18;100010.88;5980091;29;20067;-76
2023/01/08 00:58:58;;;;;;;3.67;1.90;;;;;;;8.48;83.78;99992.72;5981366;29;20046;-75
2023/01/08 01:01:53;;;;;;;2.50;1.40;;;;;;;8.51;84.11;99995.06;5980909;29;20564;-76
2023/01/08 01:04:48;;;;;;;3.67;1.90;;;;;;;8.63;83.79;100001.81;5981408;29;20027;-76
2023/01/08 01:07:44;;;;;;;3.40;1.70;;;;;;;8.65;83.60;100005.13;5980483;29;20046;-77
2023/01/08 01:10:39;;;;;;;3.33;1.53;;;;;;;8.64;83.74;100008.72;5980004;29;20046;-77
2023/01/08 01:13:34;;;;;;;4.57;1.80;;;;;;;8.56;83.89;99990.16;5979368;29;20298;-77
2023/01/08 01:16:30;;;;;;;2.80;1.73;;;;;;;8.64;83.85;99989.44;5981243;29;20507;-77
2023/01/08 01:19:25;;;;;;;3.43;1.80;;;;;;;8.54;83.87;99976.28;5981014;28;20039;-75
2023/01/08 01:22:20;;;;;;;5.63;2.00;;;;;;;8.60;83.88;100003.91;5978569;29;20509;-75
2023/01/08 01:25:16;;;;;;;3.60;1.70;;;;;;;8.52;84.18;99982.69;5979962;29;20040;-74
2023/01/08 01:28:11;;;;;;;3.35;1.80;;;;;;;8.54;84.31;99986.84;5991714;28;20066;-77
2023/01/08 01:31:09;;;;;;;5.40;2.10;;;;;;;8.42;84.53;99961.66;5981974;29;20035;-75
2023/01/08 01:34:05;;;;;;;3.30;1.73;;;;;;;8.54;84.46;99986.00;5963637;29;20046;-76
2023/01/08 01:37:00;;;;;;;4.20;2.17;;;;;;;8.43;84.29;99958.00;5980557;29;20035;-76
2023/01/08 01:39:55;;;;;;;3.57;1.67;;;;;;;8.47;84.34;99977.88;5982069;29;20296;-75
2023/01/08 01:42:50;;;;;;;4.20;1.70;;;;;;;8.48;85.00;99982.16;5979213;29;20051;-77
2023/01/08 01:45:46;;;;;;;4.43;1.97;;;;;;;8.43;84.40;99973.03;5980300;29;20031;-76
2023/01/08 01:48:41;;;;;;;4.63;1.90;;;;;;;8.59;84.42;99989.06;5980144;29;20501;-76
2023/01/08 01:51:38;;;;;;;5.18;1.50;;;;;;;8.55;84.33;99985.03;5963071;29;20074;-76
2023/01/08 01:54:35;;;;;;;4.93;2.25;;;;;;;8.59;84.41;99996.97;5980816;28;20042;-75
2023/01/08 01:57:31;;;;;;;3.78;1.58;;;;;;;8.57;84.27;99991.00;5984922;29;20097;-76
2023/01/08 02:00:27;;;;;;;3.08;1.50;;;;;;;8.55;84.37;99998.25;5987718;29;20066;-76
2023/01/08 02:03:24;;;;;;;3.85;1.92;;;;;;;8.64;84.15;100007.94;5987310;29;20110;-75
2023/01/08 02:06:36;;;;;;;4.88;2.15;;;;;;;8.58;83.88;99993.50;5969218;29;20114;-75
2023/01/08 02:09:59;;;;;;;3.97;1.90;;;;;;;8.62;83.86;99986.91;5969664;29;20046;-75
2023/01/08 02:13:07;;;;;;;4.72;2.03;;;;;;;8.60;83.85;99980.13;5968876;29;20046;-75
2023/01/08 02:16:16;;;;;;;4.55;2.10;;;;;;;8.69;83.72;99990.63;5986882;29;20490;-76
2023/01/08 02:19:37;;;;;;;3.90;1.73;;;;;;;8.71;83.87;99991.31;5968491;29;20125;-78
2023/01/08 02:22:47;;;;;;;4.60;2.17;;;;;;;8.73;83.66;99976.13;5956327;29;20101;-76
2023/01/08 02:26:04;;;;;;;5.28;2.15;;;;;;;8.72;83.76;99968.34;5984062;29;20062;-74
2023/01/08 02:29:06;;;;;;;4.50;1.95;;;;;;;8.62;84.39;99957.00;5983872;28;20110;-78
2023/01/08 02:32:02;;;;;;;3.67;2.05;;;;;;;8.61;84.26;99952.72;5966980;29;20031;-75
2023/01/08 02:34:57;;;;;;;4.60;2.00;;;;;;;8.59;84.10;99949.41;5951018;29;20093;-76
2023/01/08 02:37:53;;;;;;;5.20;2.30;;;;;;;8.54;84.41;99943.72;5984051;29;20035;-77
2023/01/08 02:40:54;;;;;;;4.50;2.00;;;;;;;8.47;84.71;99947.97;5984288;29;20326;-77
2023/01/08 02:43:50;;;;;;;4.82;2.10;;;;;;;8.43;85.08;99952.72;5965479;29;20378;-75
2023/01/08 02:46:49;;;;;;;4.72;2.30;;;;;;;8.53;84.93;99960.59;5983249;29;20039;-78
2023/01/08 02:49:46;;;;;;;6.20;2.47;;;;;;;8.56;85.00;99955.00;5982896;29;20031;-77
2023/01/08 02:52:51;;;;;;;6.47;2.10;;;;;;;8.58;85.33;99953.88;5965621;29;20043;-75
2023/01/08 02:55:52;;;;;;;4.45;2.40;;;;;;;8.48;85.26;99936.44;5983492;29;20082;-78
2023/01/08 02:58:48;;;;;;;5.78;2.20;;;;;;;8.54;84.70;99954.31;5960469;29;20039;-75
2023/01/08 03:01:44;;;;;;;4.10;1.85;;;;;;;8.67;84.79;99970.63;5975271;29;20053;-76
2023/01/08 03:04:47;;;;;;;3.55;2.00;;;;;;;8.73;84.66;99973.47;5966238;28;20471;-74
2023/01/08 03:07:43;;;;;;;6.97;2.42;;;;;;;8.77;84.62;99971.38;5983542;29;20038;-76
2023/01/08 03:10:40;;;;;;;4.60;2.10;;;;;;;8.68;85.07;99966.97;5984265;29;20043;-76
2023/01/08 03:13:49;;;;;;;3.92;2.08;;;;;;;8.73;84.73;99970.84;5983291;29;20047;-75
2023/01/08 03:16:48;;;;;;;4.28;2.45;;;;;;;8.76;84.82;99980.25;5985587;29;20053;-75
2023/01/08 03:19:48;;;;;;;5.18;2.72;;;;;;;8.68;84.76;99966.97;5986191;28;20027;-75
2023/01/08 03:22:46;;;;;;;4.90;2.58;;;;;;;8.76;85.03;99985.56;5968874;29;20035;-75
2023/01/08 03:25:44;;;;;;;4.32;2.13;;;;;;;8.81;84.80;99975.34;5967089;29;20043;-78
2023/01/08 03:28:45;;;;;;;3.42;1.83;;;;;;;8.74;85.25;99964.56;5983473;28;20175;-77
2023/01/08 03:31:40;;;;;;;3.83;1.80;;;;;;;8.81;84.97;99972.72;5967348;28;20035;-76
2023/01/08 03:34:37;;;;;;;4.95;2.25;;;;;;;8.80;85.08;99971.06;5965043;29;20031;-76
2023/01/08 03:37:36;;;;;;;3.88;1.67;;;;;;;8.87;84.47;99940.38;5981401;29;20045;-74
2023/01/08 03:40:40;;;;;;;4.72;2.53;;;;;;;8.93;84.43;99967.03;5967716;29;20035;-77
2023/01/08 03:43:35;;;;;;;6.15;2.75;;;;;;;8.91;84.63;99955.75;5966668;29;20047;-75
2023/01/08 03:46:32;;;;;;;6.83;2.00;;;;;;;8.89;84.55;99949.81;5982996;29;20505;-75
2023/01/08 03:49:28;;;;;;;4.10;2.00;;;;;;;8.94;84.77;99952.00;5967682;29;20626;-75
2023/01/08 03:52:25;;;;;;;3.85;1.95;;;;;;;8.96;84.86;99939.47;5982204;29;20042;-74
2023/01/08 03:55:21;;;;;;;3.70;2.20;;;;;;;8.98;84.24;99929.53;5984129;29;20439;-78
2023/01/08 03:58:16;;;;;;;5.70;2.47;;;;;;;9.03;84.31;99929.91;5983963;29;20039;-73
2023/01/08 04:01:11;;;;;;;6.32;2.38;;;;;;;8.97;84.99;99928.72;5986144;29;20034;-77
2023/01/08 04:04:07;;;;;;;6.63;2.67;;;;;;;9.01;84.67;99916.03;5983933;29;20525;-74
2023/01/08 04:07:03;;;;;;;3.75;2.10;;;;;;;8.98;84.77;99927.75;5983076;29;20034;-75
2023/01/08 04:09:59;;;;;;;4.05;2.45;;;;;;;8.92;85.51;99928.34;5985598;29;20094;-77
2023/01/08 04:12:54;;;;;;;4.93;2.20;;;;;;;8.85;86.24;99927.31;5984786;29;20047;-75
2023/01/08 04:15:50;;;;;;;6.27;2.40;;;;;;;8.76;86.28;99916.81;5983659;29;20039;-74
2023/01/08 04:18:46;;;;;;;5.43;2.47;;;;;;;8.86;86.25;99925.47;5963403;29;20039;-74
2023/01/08 04:21:42;;;;;;;5.22;2.53;;;;;;;8.83;86.21;99933.75;5983282;28;20042;-76
2023/01/08 04:24:37;;;;;;;5.47;2.50;;;;;;;8.77;86.59;99915.84;5979361;29;20039;-74
2023/01/08 04:27:32;;;;;;;4.90;2.55;;;;;;;8.71;86.48;99908.53;5976996;29;20077;-76
2023/01/08 04:30:27;;;;;;;5.83;2.50;;;;;;;8.71;86.61;99903.25;5981546;28;20483;-74
2023/01/08 04:33:24;;;;;;;8.50;2.30;;;;;;;8.63;86.78;99900.53;5981186;29;20042;-75
2023/01/08 04:36:19;;;;;;;5.90;2.25;;;;;;;8.69;87.13;99898.13;5982743;29;20054;-76
2023/01/08 04:39:15;;;;;;;4.40;2.57;;;;;;;8.70;86.84;99880.44;5982225;29;20095;-74
2023/01/08 04:42:10;;;;;;;5.07;2.35;;;;;;;8.80;86.93;99886.47;5981002;29;20043;-77
2023/01/08 04:45:06;;;;;;;4.90;2.30;;;;;;;8.76;86.71;99877.19;5970132;29;20038;-76
2023/01/08 04:48:01;;;;;;;3.65;2.30;;;;;;;8.72;86.70;99873.19;5964717;29;20034;-73
2023/01/08 04:50:58;;;;;;;5.40;2.10;;;;;;;8.79;86.93;99880.34;5980903;29;20047;-74
2023/01/08 04:53:54;;;;;;;5.65;2.13;;;;;;;8.83;86.72;99871.09;5980985;29;20266;-76
2023/01/08 04:56:50;;;;;;;6.63;2.50;;;;;;;8.83;86.54;99883.53;5981264;29;20047;-76
2023/01/08 04:59:46;;;;;;;5.00;2.38;;;;;;;8.84;86.22;99866.66;5982330;29;20474;-77
2023/01/08 05:02:41;;;;;;;5.20;2.47;;;;;;;8.86;86.71;99869.97;5982790;29;20039;-76
2023/01/08 05:05:36;;;;;;;5.37;2.47;;;;;;;8.93;86.61;99871.03;5982250;29;20039;-74
2023/01/08 05:08:32;;;;;;;5.13;2.60;;;;;;;8.90;86.62;99868.69;5981645;29;20431;-76
2023/01/08 05:11:27;;;;;;;4.60;2.13;;;;;;;8.88;86.85;99857.44;5981901;29;20349;-75
2023/01/08 05:14:22;;;;;;;4.27;2.43;;;;;;;8.89;86.94;99869.66;5981245;29;20746;-76
2023/01/08 05:17:17;;;;;;;4.77;2.53;;;;;;;8.83;87.18;99849.97;5981753;29;20043;-75
2023/01/08 05:20:13;;;;;;;5.73;2.80;;;;;;;8.78;87.40;99857.53;5982786;28;20039;-75
2023/01/08 05:23:08;;;;;;;4.40;2.60;;;;;;;8.75;87.80;99852.56;5980120;29;20039;-74
2023/01/08 05:26:05;;;;;;;4.10;2.17;;;;;;;8.76;87.39;99856.03;5982198;29;20033;-75
2023/01/08 05:29:00;;;;;;;6.80;2.40;;;;;;;8.79;87.85;99858.38;5981831;28;20320;-76
2023/01/08 05:31:55;;;;;;;4.43;2.77;;;;;;;8.80;88.07;99866.16;5991335;28;20093;-75
2023/01/08 05:35:03;;;;;;;4.83;2.40;;;;;;;8.81;88.30;99851.94;5987623;28;20023;-75
2023/01/08 05:37:59;;;;;;;4.63;2.60;;;;;;;8.90;88.05;99861.59;5967635;29;20035;-78
2023/01/08 05:40:54;;;;;;;4.80;2.75;;;;;;;8.88;88.11;99853.00;5985361;29;20039;-76
2023/01/08 05:43:50;;;;;;;7.03;2.33;;;;;;;8.81;88.19;99845.81;5984417;29;20047;-73
2023/01/08 05:46:45;;;;;;;6.63;2.77;;;;;;;8.92;88.41;99856.13;5967669;29;20470;-75
2023/01/08 05:49:40;;;;;;;5.17;2.60;;;;;;;8.87;88.77;99848.69;5983895;29;20058;-78
2023/01/08 05:52:35;;;;;;;4.50;2.77;;;;;;;8.85;89.20;99847.19;5983774;29;20027;-75
2023/01/08 05:55:31;;;;;;;5.57;2.70;;;;;;;8.86;89.41;99856.75;5983302;29;20039;-75
2023/01/08 05:58:26;;;;;;;5.87;2.60;;;;;;;8.81;90.19;99854.59;5983511;28;20031;-76
2023/01/08 06:01:21;;;;;;;4.43;2.30;;;;;;;8.67;91.35;99847.22;5982505;29;20114;-77
2023/01/08 06:04:17;;;;;;;4.85;2.40;;;;;;;8.72;92.07;99868.75;5981926;29;20039;-75
2023/01/08 06:07:12;;;;;;;5.43;2.50;;;;;;;8.59;93.09;99849.00;5982344;29;20397;-74
2023/01/08 06:10:08;;;;;;;3.87;2.23;;;;;;;8.72;93.13;99862.63;5982413;29;20074;-75
2023/01/08 06:13:09;;;;;;;5.80;2.28;;;;;;;8.63;93.81;99859.09;5982138;29;20077;-75
2023/01/08 06:16:04;;;;;;;6.20;2.53;;;;;;;8.58;94.58;99858.75;5982076;29;20039;-74
2023/01/08 06:19:00;;;;;;;6.40;3.20;;;;;;;8.53;95.04;99849.63;5981759;29;20055;-74
2023/01/08 06:21:55;;;;;;;5.20;2.63;;;;;;;8.48;95.88;99850.06;5981239;28;20097;-75
2023/01/08 06:24:50;;;;;;;5.90;2.67;;;;;;;8.37;97.47;99842.38;5982705;29;20411;-74
2023/01/08 06:27:50;;;;;;;4.80;2.67;;;;;;;8.40;97.08;99843.91;5980049;29;20045;-75
2023/01/08 06:30:46;;;;;;;6.85;2.50;;;;;;;8.31;98.05;99843.84;5981364;29;20035;-74
2023/01/08 06:33:41;;;;;;;4.97;2.87;;;;;;;8.30;98.89;99842.16;5991867;28;20074;-74
2023/01/08 06:36:36;;;;;;;5.27;2.70;;;;;;;8.29;99.05;99851.06;5983620;28;20031;-74
2023/01/08 06:39:31;;;;;;;5.60;2.97;;;;;;;8.34;99.22;99853.28;5980761;28;20035;-74
2023/01/08 06:42:27;;;;;;;5.73;2.83;;;;;;;8.35;99.74;99853.09;5980759;29;20451;-74
2023/01/08 06:45:22;;;;;;;5.97;2.97;;;;;;;8.33;99.55;99851.59;5981610;29;20035;-74
2023/01/08 06:48:17;;;;;;;4.90;2.93;;;;;;;8.13;100.00;99821.84;5981805;29;20086;-75
2023/01/08 06:51:13;;;;;;;6.77;3.23;;;;;;;8.23;100.00;99830.53;5981507;29;20475;-74
2023/01/08 06:54:08;;;;;;;5.10;2.83;;;;;;;8.26;100.00;99835.50;5981024;29;20035;-74
2023/01/08 06:57:03;;;;;;;7.70;3.25;;;;;;;8.21;100.00;99819.28;5964335;29;20038;-74
2023/01/08 06:59:59;;;;;;;7.20;2.50;;;;;;;8.24;100.00;99833.97;5981310;29;20142;-75
2023/01/08 07:02:54;;;;;;;5.70;2.83;;;;;;;8.26;100.00;99835.50;5980015;29;20043;-74
2023/01/08 07:05:50;;;;;;;5.25;2.45;;;;;;;8.17;100.00;99831.13;5981179;29;20471;-76
2023/01/08 07:08:45;;;;;;;5.70;2.93;;;;;;;8.21;100.00;99843.03;5981050;29;20034;-73
2023/01/08 07:11:41;;;;;;;6.75;3.22;;;;;;;8.24;100.00;99848.03;5980381;29;20062;-74
2023/01/08 07:14:36;;;;;;;5.53;3.13;;;;;;;8.24;100.00;99837.47;5980137;29;20028;-74
2023/01/08 07:17:32;;;;;;;5.27;2.60;;;;;;;8.27;100.00;99839.84;5980886;29;20549;-74
2023/01/08 07:20:27;;;;;;;4.68;2.65;;;;;;;8.19;100.00;99845.00;5980681;28;20043;-74
2023/01/08 07:23:23;;;;;;;8.90;2.97;;;;;;;8.24;100.00;99850.66;5980396;29;20128;-76
2023/01/08 07:26:18;;;;;;;6.07;2.87;;;;;;;8.12;100.00;99843.13;5980736;29;20039;-75
2023/01/08 07:29:13;;;;;;;6.93;2.70;;;;;;;8.10;100.00;99834.56;5980518;29;20620;-75
2023/01/08 07:32:08;;;;;;;6.60;3.30;;;;;;;8.13;100.00;99850.91;5979926;29;20046;-74
2023/01/08 07:35:04;;;;;;;6.60;2.90;;;;;;;8.05;100.00;99850.00;5981346;28;20035;-75
2023/01/08 07:37:59;;;;;;;8.15;3.45;;;;;;;8.09;100.00;99860.13;5980247;29;20080;-75
2023/01/08 07:40:56;;;;;;;7.77;4.17;;;;;;;7.97;100.00;99848.09;5980377;29;20043;-74
2023/01/08 07:43:51;;;;;;;6.43;3.67;;;;;;;7.98;100.00;99847.16;5980042;29;20113;-75
2023/01/08 07:46:47;;;;;;;8.87;4.17;;;;;;;7.97;100.00;99853.38;5979619;29;20086;-75
2023/01/08 07:49:42;;;;;;;7.70;4.40;;;;;;;7.94;100.00;99861.59;5979398;29;20035;-75
2023/01/08 07:52:37;;;;;;;5.80;3.33;;;;;;;7.94;100.00;99863.41;5978980;28;20031;-75
2023/01/08 07:55:32;;;;;;;13.13;3.90;;;;;;;7.83;100.00;99835.44;5980064;29;20376;-74
2023/01/08 07:58:28;;;;;;;9.97;4.10;;;;;;;7.91;100.00;99858.47;5979934;29;20038;-76
2023/01/08 08:01:24;;;;;;;8.15;4.13;;;;;;;7.88;100.00;99851.63;5980187;29;20035;-75
2023/01/08 08:04:20;;;;;;;7.32;3.63;;;;;;;7.87;100.00;99844.72;5978887;29;20039;-75
2023/01/08 08:07:15;;;;;;;7.77;4.37;;;;;;;7.88;100.00;99849.00;5980030;29;20494;-76
2023/01/08 08:10:13;;;;;;;7.83;3.93;;;;;;;7.88;100.00;99848.19;5979904;29;20267;-75
2023/01/08 08:13:09;;;;;;;8.55;4.53;;;;;;;7.89;100.00;99847.19;5979353;29;20062;-74
2023/01/08 08:16:05;;;;;;;8.55;3.63;;;;;;;7.88;100.00;99845.56;5979524;29;20089;-73
2023/01/08 08:19:00;;;;;;;9.00;4.43;;;;;;;7.92;100.00;99858.28;5979544;29;20031;-77
2023/01/08 08:21:56;;;;;;;7.07;3.63;;;;;;;7.85;100.00;99845.84;5978641;28;20602;-76
2023/01/08 08:24:51;;;;;;;6.80;3.93;;;;;;;7.88;100.00;99849.00;5979564;29;20035;-76
2023/01/08 08:27:46;;;;;;;7.67;4.00;;;;;;;7.97;100.00;99852.56;5979518;29;20033;-75
2023/01/08 08:30:41;;;;;;;16.83;4.10;;;;;;;7.93;100.00;99846.78;5979561;29;20114;-75
2023/01/08 08:33:37;;;;;;;6.60;3.37;;;;;;;7.97;100.00;99860.47;5978665;29;20395;-76
2023/01/08 08:36:32;;;;;;;11.05;4.47;;;;;;;7.97;100.00;99853.38;5979143;28;20122;-75
2023/01/08 08:39:28;;;;;;;7.50;4.45;;;;;;;8.00;100.00;99845.16;5979153;29;20039;-74
2023/01/08 08:42:23;;;;;;;10.10;4.33;;;;;;;8.02;100.00;99848.47;5978991;29;20039;-72
2023/01/08 08:45:18;;;;;;;8.57;3.97;;;;;;;7.90;100.00;99823.31;5979363;29;20046;-76
2023/01/08 08:48:15;;;;;;;7.53;4.17;;;;;;;8.01;100.00;99831.00;5979126;29;20035;-74
2023/01/08 08:51:11;;;;;;;8.73;4.68;;;;;;;7.93;100.00;99808.97;5979207;29;20035;-76
2023/01/08 08:54:06;;;;;;;8.82;4.80;;;;;;;8.05;100.00;99832.34;5977918;29;20082;-73
2023/01/08 08:57:02;;;;;;;7.33;4.30;;;;;;;8.05;100.00;99832.34;5979083;29;20051;-74
2023/01/08 08:59:57;;;;;;;8.07;4.57;;;;;;;8.00;100.00;99817.94;5978873;29;20039;-77
2023/01/08 09:02:52;;;;;;;8.17;3.57;;;;;;;7.97;100.00;99800.59;5980153;28;20055;-74
2023/01/08 09:05:47;;;;;;;7.17;4.40;;;;;;;7.98;100.00;99801.44;5984578;29;20282;-78
2023/01/08 09:08:43;;;;;;;5.70;3.37;;;;;;;8.12;100.00;99819.38;5983167;29;20467;-77
2023/01/08 09:11:38;;;;;;;7.43;4.03;;;;;;;8.03;100.00;99796.53;5983933;29;20035;-74
2023/01/08 09:14:33;;;;;;;8.13;3.40;;;;;;;8.09;100.00;99796.75;5983208;29;20057;-74
2023/01/08 09:17:29;;;;;;;7.27;3.53;;;;;;;8.11;100.00;99793.94;5982993;29;20035;-75
2023/01/08 09:20:25;;;;;;;6.67;3.57;;;;;;;8.13;100.00;99803.38;5983066;28;20038;-75
2023/01/08 09:23:20;;;;;;;8.25;3.83;;;;;;;8.16;100.00;99795.16;5982482;29;20034;-76
2023/01/08 09:26:16;;;;;;;6.28;3.53;;;;;;;8.23;100.00;99803.28;5983354;29;20073;-77
2023/01/08 09:29:11;;;;;;;6.90;3.57;;;;;;;8.31;100.00;99814.78;5982204;29;20483;-75
2023/01/08 09:32:07;;;;;;;6.00;3.30;;;;;;;8.27;100.00;99787.00;5982746;29;20086;-76
2023/01/08 09:35:03;;;;;;;6.50;3.10;;;;;;;8.35;100.00;99788.88;5983355;29;20027;-75
2023/01/08 09:37:59;;;;;;;8.35;3.00;;;;;;;8.49;100.00;99792.75;5983035;28;20387;-77
2023/01/08 09:41:01;;;;;;;6.40;3.60;;;;;;;8.48;100.00;99788.47;5982830;29;20094;-76
2023/01/08 09:43:57;;;;;;;7.25;3.08;;;;;;;8.64;100.00;99801.78;5982307;29;20622;-76
2023/01/08 09:46:54;;;;;;;5.22;2.63;;;;;;;8.58;100.00;99797.97;5965788;29;20038;-76
2023/01/08 09:49:51;;;;;;;5.85;3.25;;;;;;;8.63;100.00;99800.13;5983090;29;20039;-76
2023/01/08 09:52:46;;;;;;;5.60;2.88;;;;;;;8.70;100.00;99807.25;5982356;29;20063;-74
2023/01/08 09:55:42;;;;;;;5.50;2.65;;;;;;;8.65;100.00;99792.88;5982979;29;20042;-73
2023/01/08 09:58:49;;;;;;;4.93;2.75;;;;;;;8.58;100.00;99783.91;5965179;29;20043;-73
2023/01/08 10:01:45;;;;;;;5.28;2.90;;;;;;;8.69;100.00;99804.78;5982509;28;20471;-76
2023/01/08 10:04:40;;;;;;;6.18;2.65;;;;;;;8.58;100.00;99783.91;5965010;29;20043;-77
2023/01/08 10:07:35;;;;;;;5.53;2.58;;;;;;;8.69;100.00;99807.44;5965219;29;20035;-75
2023/01/08 10:10:31;;;;;;;4.78;2.53;;;;;;;8.72;100.00;99784.19;5981712;29;20035;-77
2023/01/08 10:13:26;;;;;;;5.30;2.90;;;;;;;8.80;100.00;99800.06;5981989;29;20087;-75
2023/01/08 10:16:31;;;;;;;4.70;2.60;;;;;;;8.68;100.00;99776.69;5982089;28;20039;-75
2023/01/08 10:19:26;;;;;;;4.55;2.20;;;;;;;8.92;100.00;99796.16;5965719;28;21015;-75
2023/01/08 10:22:24;;;;;;;5.18;2.97;;;;;;;8.91;100.00;99794.50;5982276;29;20047;-76
2023/01/08 10:25:22;;;;;;;5.13;1.90;;;;;;;8.86;100.00;99780.91;5983080;29;20038;-75
2023/01/08 10:28:23;;;;;;;8.18;3.05;;;;;;;8.97;100.00;99795.66;5978390;29;20046;-75
2023/01/08 10:31:18;;;;;;;;;;;;;;;8.91;100.00;99789.19;5982205;29;20513;-77
2023/01/08 10:34:25;;;;;;;3.03;1.63;;;;;;;8.88;100.00;99776.31;5981437;29;19978;-74
2023/01/08 10:37:27;;;;;;;2.58;1.70;;;;;;;8.93;100.00;99781.13;5983170;29;20043;-75
2023/01/08 10:40:42;;;;;;;3.30;1.77;;;;;;;8.89;100.00;99785.88;5986369;28;20043;-76
2023/01/08 10:43:52;;;;;;;2.83;1.60;;;;;;;8.78;100.00;99767.66;5984262;29;20038;-76
2023/01/08 10:46:49;;;;;;;3.45;1.92;;;;;;;8.91;100.00;99785.75;5966901;29;20039;-74
2023/01/08 10:49:45;;;;;;;4.05;1.85;;;;;;;8.86;100.00;99780.91;5968534;29;20043;-77
2023/01/08 10:52:52;;;;;;;4.10;2.10;;;;;;;8.91;100.00;99789.19;5987429;29;20027;-74
2023/01/08 10:55:56;;;;;;;4.32;1.98;;;;;;;8.90;100.00;99770.88;5969178;29;20039;-75
2023/01/08 10:58:52;;;;;;;5.53;2.00;;;;;;;9.05;100.00;99789.63;5987563;29;20035;-76
2023/01/08 11:01:55;;;;;;;3.85;1.75;;;;;;;8.87;100.00;99760.59;5969021;29;20058;-76
2023/01/08 11:04:51;;;;;;;4.03;1.90;;;;;;;8.98;100.00;99774.38;5986121;29;20038;-75
2023/01/08 11:07:50;;;;;;;3.00;1.60;;;;;;;9.02;100.00;99766.97;5985924;29;20039;-76
2023/01/08 11:11:00;;;;;;;2.22;1.15;;;;;;;8.94;100.00;99748.44;5985932;29;20471;-77
2023/01/08 11:14:04;;;;;;;3.20;1.58;;;;;;;9.08;100.00;99755.72;5987350;29;20031;-76
2023/01/08 11:17:01;;;;;;;2.55;1.40;;;;;;;9.12;100.00;99743.84;5990065;29;20066;-75
2023/01/08 11:20:06;;;;;;;2.53;1.20;;;;;;;9.19;100.00;99739.56;5980511;28;20054;-76
2023/01/08 11:23:14;;;;;;;2.25;1.10;;;;;;;9.13;100.00;99703.16;5983416;29;20035;-76
2023/01/08 11:26:19;;;;;;;3.25;1.65;;;;;;;9.15;100.00;99695.94;5981519;28;20050;-77
2023/01/08 11:29:17;;;;;;;5.00;1.95;;;;;;;9.19;100.00;99707.81;5967705;29;20118;-76
2023/01/08 11:32:36;;;;;;;6.00;2.45;;;;;;;9.28;100.00;99720.09;5966842;29;20114;-75
2023/01/08 11:35:37;;;;;;;5.53;2.03;;;;;;;9.29;100.00;99708.53;5987405;29;20035;-77
2023/01/08 11:38:33;;;;;;;6.55;2.80;;;;;;;9.29;100.00;99707.69;5990604;29;20491;-77
2023/01/08 11:41:58;;;;;;;6.20;2.00;;;;;;;9.18;100.00;99690.31;5985881;28;20098;-77
2023/01/08 11:45:14;;;;;;;4.20;1.55;;;;;;;9.07;99.89;99661.53;5985688;29;20039;-76
2023/01/08 11:48:25;;;;;;;4.25;1.60;;;;;;;9.22;100.00;99691.63;5987166;29;20031;-77
2023/01/08 11:51:44;;;;;;;4.35;1.73;;;;;;;9.28;100.00;99696.28;5987096;29;20027;-77
2023/01/08 11:54:51;;;;;;;2.65;1.23;;;;;;;9.25;100.00;99683.38;5987625;29;20046;-77
2023/01/08 11:58:06;;;;;;;2.10;1.10;;;;;;;9.22;100.00;99675.75;5988751;29;20068;-75
2023/01/08 12:01:53;;;;;;;3.72;1.55;;;;;;;9.30;100.00;99681.06;5989174;29;20058;-79
2023/01/08 12:05:13;;;;;;;4.07;1.60;;;;;;;9.25;99.95;99675.44;5885981;29;20041;-76
2023/01/08 12:08:36;;;;;;;2.03;1.10;;;;;;;9.32;100.00;99668.50;5986604;29;20039;-76
2023/01/08 12:11:56;;;;;;;1.92;1.30;;;;;;;9.40;99.92;99679.09;5984374;29;20635;-76
2023/01/08 12:15:11;;;;;;;2.03;1.13;;;;;;;9.40;99.26;99652.63;5970976;29;20039;-76
2023/01/08 12:18:20;;;;;;;1.65;1.00;;;;;;;9.48;98.32;99681.72;5971087;29;20470;-75
2023/01/08 12:21:23;;;;;;;2.33;0.98;;;;;;;9.39;98.36;99660.75;5967374;29;20071;-77
2023/01/08 12:24:28;;;;;;;1.88;1.08;;;;;;;9.46;98.74;99674.97;5980194;29;20487;-77
2023/01/08 12:27:49;;;;;;;2.95;1.13;;;;;;;9.36;98.73;99651.31;5969879;29;20050;-77
2023/01/08 12:31:19;;;;;;;3.15;1.40;;;;;;;9.44;98.65;99664.56;5988656;29;20070;-77
2023/01/08 12:34:19;;;;;;;2.97;1.42;;;;;;;9.49;98.29;99646.34;5988766;29;20372;-76
2023/01/08 12:37:20;;;;;;;2.75;1.30;;;;;;;9.48;97.92;99655.28;5970392;29;20027;-77
2023/01/08 12:40:40;;;;;;;2.80;1.55;;;;;;;9.53;98.43;99642.41;5968626;28;20047;-76
2023/01/08 12:43:58;;;;;;;1.63;1.05;;;;;;;9.56;97.90;99639.44;5984327;29;20061;-77
2023/01/08 12:46:57;;;;;;;2.55;1.42;;;;;;;9.57;97.39;99625.19;5970003;29;20037;-77
2023/01/08 12:50:08;;;;;;;1.88;1.23;;;;;;;9.55;96.95;99619.22;5966830;29;20039;-78
2023/01/08 12:53:11;;;;;;;2.53;1.30;;;;;;;9.57;96.37;99630.47;5982940;29;20391;-78
2023/01/08 12:56:30;;;;;;;2.10;1.10;;;;;;;9.48;96.89;99638.59;5967655;29;20118;-77
2023/01/08 12:59:45;;;;;;;1.77;1.05;;;;;;;9.48;96.36;99626.16;5965352;29;20482;-75
2023/01/08 13:02:46;;;;;;;2.03;1.05;;;;;;;9.48;95.63;99620.88;5981239;29;20031;-76
2023/01/08 13:05:42;;;;;;;1.77;1.00;;;;;;;9.49;96.01;99622.53;5982511;29;20035;-77
2023/01/08 13:08:39;;;;;;;2.50;1.20;;;;;;;9.61;95.83;99630.16;5984299;29;20040;-78
2023/01/08 13:11:37;;;;;;;2.58;1.40;;;;;;;9.47;95.04;99599.88;5982203;29;20039;-75
2023/01/08 13:14:40;;;;;;;2.25;1.08;;;;;;;9.81;94.69;99608.44;5982240;29;20126;-78
2023/01/08 13:17:36;;;;;;;2.50;1.52;;;;;;;9.82;93.82;99594.22;5965234;29;20033;-77
2023/01/08 13:20:32;;;;;;;1.67;0.90;;;;;;;10.02;92.73;99600.78;5964470;29;20047;-78
2023/01/08 13:23:29;;;;;;;2.70;0.90;;;;;;;10.07;91.07;99597.63;5962908;29;20039;-78
2023/01/08 13:26:30;;;;;;;3.03;1.05;;;;;;;10.22;90.81;99587.19;5979975;29;20467;-78
2023/01/08 13:29:38;;;;;;;2.80;1.20;;;;;;;10.24;90.05;99579.88;5979397;29;20041;-77
2023/01/08 13:32:33;;;;;;;2.47;1.10;;;;;;;10.43;90.46;99604.16;5978914;29;20546;-77
2023/01/08 13:35:30;;;;;;;1.92;0.85;;;;;;;10.19;89.53;99579.59;5962180;29;20043;-76
2023/01/08 13:38:25;;;;;;;3.50;1.20;;;;;;;10.05;89.95;99583.75;5961698;29;20126;-76
2023/01/08 13:41:25;;;;;;;2.60;0.90;;;;;;;10.06;90.70;99585.38;5979121;29;20031;-77
2023/01/08 13:44:33;;;;;;;2.25;1.35;;;;;;;10.07;89.93;99579.09;5977708;28;20043;-76
2023/01/08 13:47:36;;;;;;;3.83;1.23;;;;;;;10.06;91.24;99575.59;5962439;29;20551;-77
2023/01/08 13:50:32;;;;;;;3.08;1.00;;;;;;;10.10;90.50;99592.81;5963323;29;20043;-77
2023/01/08 13:53:27;;;;;;;5.05;1.50;;;;;;;9.87;90.29;99569.88;5966115;29;20031;-77
2023/01/08 13:56:23;;;;;;;3.63;1.37;;;;;;;9.92;90.17;99588.75;5983862;29;20042;-77
2023/01/08 13:59:35;;;;;;;2.50;1.40;;;;;;;9.83;90.73;99573.88;5982467;29;20048;-74
2023/01/08 14:02:31;;;;;;;1.77;1.05;;;;;;;9.91;91.75;99579.13;5982412;29;20032;-76
2023/01/08 14:05:29;;;;;;;2.35;1.38;;;;;;;9.96;91.60;99574.16;5983273;29;20043;-76